createdAt,value
2022-11-17T00:01:09.808Z,6.11
2022-11-17T00:03:40.278Z,6.09
2022-11-17T00:06:10.717Z,6.10
2022-11-17T00:08:41.170Z,6.10
2022-11-17T00:11:11.607Z,6.10
2022-11-17T00:14:00.178Z,6.09
2022-11-17T00:16:30.860Z,6.07
2022-11-17T00:19:19.188Z,6.05
2022-11-17T00:21:50.412Z,6.06
2022-11-17T00:24:23.168Z,6.08
2022-11-17T00:27:02.523Z,6.09
2022-11-17T00:29:37.339Z,6.12
2022-11-17T00:32:32.185Z,6.11
2022-11-17T00:35:02.651Z,6.09
2022-11-17T00:37:37.195Z,6.08
2022-11-17T00:40:09.502Z,6.07
2022-11-17T00:42:40.425Z,6.05
2022-11-17T00:45:12.979Z,6.04
2022-11-17T00:47:45.069Z,6.03
2022-11-17T00:50:16.178Z,6.00
2022-11-17T00:52:46.774Z,6.00
2022-11-17T00:55:17.531Z,6.02
2022-11-17T00:57:48.510Z,6.01
2022-11-17T01:00:21.296Z,5.99
2022-11-17T01:02:51.702Z,5.97
2022-11-17T01:05:22.086Z,5.95
2022-11-17T01:07:53.795Z,5.88
2022-11-17T01:10:24.225Z,5.85
2022-11-17T01:12:54.801Z,5.84
2022-11-17T01:15:25.302Z,5.84
2022-11-17T01:17:55.789Z,5.85
2022-11-17T01:20:26.164Z,5.83
2022-11-17T01:22:58.017Z,5.81
2022-11-17T01:25:28.804Z,5.81
2022-11-17T01:27:59.191Z,5.78
2022-11-17T01:30:29.665Z,5.77
2022-11-17T01:33:00.071Z,5.77
2022-11-17T01:35:31.096Z,5.77
2022-11-17T01:38:01.477Z,5.77
2022-11-17T01:40:32.370Z,5.76
2022-11-17T01:43:02.730Z,5.77
2022-11-17T01:45:33.539Z,5.79
2022-11-17T01:48:07.414Z,5.79
2022-11-17T01:50:40.344Z,5.76
2022-11-17T01:53:15.383Z,5.76
2022-11-17T01:55:51.500Z,5.75
2022-11-17T01:58:25.563Z,5.73
2022-11-17T02:00:56.975Z,5.72
2022-11-17T02:03:28.588Z,5.73
2022-11-17T02:06:06.410Z,5.74
2022-11-17T02:08:41.302Z,5.79
2022-11-17T02:11:17.161Z,5.82
2022-11-17T02:13:48.105Z,5.82
2022-11-17T02:16:19.327Z,5.81
2022-11-17T02:18:51.394Z,5.80
2022-11-17T02:22:00.412Z,5.81
2022-11-17T02:25:02.179Z,5.81
2022-11-17T02:28:00.184Z,5.80
2022-11-17T02:30:35.451Z,5.81
2022-11-17T02:33:14.039Z,5.83
2022-11-17T02:35:51.285Z,5.83
2022-11-17T02:38:29.331Z,5.83
2022-11-17T02:41:06.243Z,5.85
2022-11-17T02:44:00.547Z,5.86
2022-11-17T02:46:33.751Z,5.87
2022-11-17T02:49:11.181Z,5.88
2022-11-17T02:51:44.717Z,5.88
2022-11-17T02:54:15.752Z,5.87
2022-11-17T02:56:46.612Z,5.87
2022-11-17T02:59:19.245Z,5.88
2022-11-17T03:02:30.119Z,5.85
2022-11-17T03:05:11.991Z,5.84
2022-11-17T03:08:04.568Z,5.83
2022-11-17T03:10:49.095Z,5.81
2022-11-17T03:13:25.480Z,5.81
2022-11-17T03:16:00.714Z,5.80
2022-11-17T03:18:36.611Z,5.78
2022-11-17T03:21:21.361Z,5.75
2022-11-17T03:23:57.073Z,5.70
2022-11-17T03:26:31.693Z,5.67
2022-11-17T03:29:03.045Z,5.66
2022-11-17T03:31:34.755Z,5.66
2022-11-17T03:34:08.080Z,5.64
2022-11-17T03:36:42.990Z,5.65
2022-11-17T03:39:18.134Z,5.64
2022-11-17T03:41:50.652Z,5.64
2022-11-17T03:44:24.548Z,5.63
2022-11-17T03:46:58.517Z,5.60
2022-11-17T03:49:36.750Z,5.58
2022-11-17T03:52:07.863Z,5.54
2022-11-17T03:54:40.173Z,5.52
2022-11-17T03:57:18.199Z,5.52
2022-11-17T03:59:51.285Z,5.52
2022-11-17T04:02:23.418Z,5.50
2022-11-17T04:05:09.078Z,5.47
2022-11-17T04:07:41.726Z,5.46
2022-11-17T04:10:15.197Z,5.46
2022-11-17T04:13:03.420Z,5.46
2022-11-17T04:15:51.888Z,5.47
2022-11-17T04:18:23.224Z,5.44
2022-11-17T04:20:55.136Z,5.42
2022-11-17T04:23:26.702Z,5.40
2022-11-17T04:26:26.915Z,5.40
2022-11-17T04:28:57.490Z,5.39
2022-11-17T04:31:29.557Z,5.41
2022-11-17T04:34:01.424Z,5.41
2022-11-17T04:36:33.236Z,5.41
2022-11-17T04:39:03.784Z,5.40
2022-11-17T04:41:53.322Z,5.39
2022-11-17T04:44:26.188Z,5.38
2022-11-17T04:46:57.534Z,5.38
2022-11-17T04:49:29.287Z,5.38
2022-11-17T04:51:59.726Z,5.37
2022-11-17T04:54:30.076Z,5.37
2022-11-17T04:57:00.368Z,5.36
2022-11-17T04:59:30.711Z,5.36
2022-11-17T05:02:05.625Z,5.37
2022-11-17T05:04:54.819Z,5.36
2022-11-17T05:07:25.434Z,5.34
2022-11-17T05:09:55.998Z,5.34
2022-11-17T05:12:44.161Z,5.34
2022-11-17T05:15:35.004Z,5.30
2022-11-17T05:18:05.674Z,5.29
2022-11-17T05:20:36.433Z,5.31
2022-11-17T05:23:24.358Z,5.31
2022-11-17T05:25:57.174Z,5.31
2022-11-17T05:28:27.546Z,5.30
2022-11-17T05:30:59.076Z,5.27
2022-11-17T05:33:32.401Z,5.25
2022-11-17T05:36:08.604Z,5.27
2022-11-17T05:38:38.995Z,5.28
2022-11-17T05:41:10.012Z,5.27
2022-11-17T05:43:40.928Z,5.27
2022-11-17T05:46:11.955Z,5.27
2022-11-17T05:48:42.638Z,5.26
2022-11-17T05:51:13.617Z,5.23
2022-11-17T05:53:44.779Z,5.21
2022-11-17T05:56:29.364Z,5.20
2022-11-17T05:59:04.204Z,5.19
2022-11-17T06:01:37.604Z,5.18
2022-11-17T06:04:08.942Z,5.17
2022-11-17T06:06:39.982Z,5.16
2022-11-17T06:09:10.883Z,5.13
2022-11-17T06:11:41.601Z,5.12
2022-11-17T06:14:12.347Z,5.12
2022-11-17T06:16:47.202Z,5.14
2022-11-17T06:19:22.539Z,5.16
2022-11-17T06:22:13.388Z,5.17
2022-11-17T06:24:45.808Z,5.18
2022-11-17T06:27:17.966Z,5.18
2022-11-17T06:29:49.804Z,5.16
2022-11-17T06:32:21.581Z,5.16
2022-11-17T06:34:55.995Z,5.15
2022-11-17T06:37:28.252Z,5.13
2022-11-17T06:39:59.070Z,5.16
2022-11-17T06:42:47.654Z,5.16
2022-11-17T06:45:18.525Z,5.14
2022-11-17T06:47:49.432Z,5.10
2022-11-17T06:50:20.682Z,5.08
2022-11-17T06:52:51.726Z,5.06
2022-11-17T06:55:22.489Z,5.04
2022-11-17T06:57:53.766Z,5.03
2022-11-17T07:00:24.804Z,5.01
2022-11-17T07:02:59.591Z,5.00
2022-11-17T07:05:30.773Z,4.98
2022-11-17T07:08:02.428Z,4.97
2022-11-17T07:10:34.573Z,4.94
2022-11-17T07:13:05.701Z,4.94
2022-11-17T07:15:36.046Z,4.93
2022-11-17T07:18:06.760Z,4.91
2022-11-17T07:20:37.799Z,4.87
2022-11-17T07:23:08.882Z,4.86
2022-11-17T07:25:39.383Z,4.84
2022-11-17T07:28:10.210Z,4.84
2022-11-17T07:30:40.945Z,4.84
2022-11-17T07:33:11.558Z,4.83
2022-11-17T07:35:41.965Z,4.81
2022-11-17T07:38:13.148Z,4.80
2022-11-17T07:40:43.814Z,4.78
2022-11-17T07:43:14.916Z,4.78
2022-11-17T07:45:45.666Z,4.79
2022-11-17T07:48:16.285Z,4.78
2022-11-17T07:50:46.976Z,4.78
2022-11-17T07:53:17.627Z,4.78
2022-11-17T07:55:48.051Z,4.76
2022-11-17T07:58:18.432Z,4.73
2022-11-17T08:00:48.915Z,4.68
2022-11-17T08:03:19.674Z,4.65
2022-11-17T08:05:51.009Z,4.66
2022-11-17T08:08:22.134Z,4.69
2022-11-17T08:10:52.607Z,4.72
2022-11-17T08:13:24.215Z,4.73
2022-11-17T08:16:00.021Z,4.73
2022-11-17T08:18:31.859Z,4.69
2022-11-17T08:21:07.375Z,4.67
2022-11-17T08:23:38.638Z,4.63
2022-11-17T08:26:11.259Z,4.60
2022-11-17T08:28:41.992Z,4.57
2022-11-17T08:31:12.402Z,4.54
2022-11-17T08:33:43.315Z,4.53
2022-11-17T08:36:13.672Z,4.52
2022-11-17T08:38:44.519Z,4.52
2022-11-17T08:41:15.298Z,4.53
2022-11-17T08:43:45.622Z,4.55
2022-11-17T08:46:16.998Z,4.57
2022-11-17T08:48:48.983Z,4.57
2022-11-17T08:51:23.287Z,4.57
2022-11-17T08:53:53.749Z,4.56
2022-11-17T08:56:24.299Z,4.56
2022-11-17T08:58:54.740Z,4.55
2022-11-17T09:01:25.184Z,4.54
2022-11-17T09:03:55.681Z,4.53
2022-11-17T09:06:26.325Z,4.54
2022-11-17T09:08:57.833Z,4.56
2022-11-17T09:11:28.730Z,4.54
2022-11-17T09:13:59.471Z,4.51
2022-11-17T09:16:30.393Z,4.48
2022-11-17T09:19:02.649Z,4.43
2022-11-17T09:21:34.134Z,4.42
2022-11-17T09:24:04.947Z,4.39
2022-11-17T09:26:35.565Z,4.38
2022-11-17T09:29:06.340Z,4.35
2022-11-17T09:31:37.752Z,4.32
2022-11-17T09:34:08.635Z,4.33
2022-11-17T09:36:39.063Z,4.33
2022-11-17T09:39:10.398Z,4.34
2022-11-17T09:41:44.672Z,4.33
2022-11-17T09:44:23.445Z,4.34
2022-11-17T09:47:14.846Z,4.36
2022-11-17T09:49:58.672Z,4.37
2022-11-17T09:52:34.433Z,4.37
2022-11-17T09:55:15.328Z,4.41
2022-11-17T09:57:49.532Z,4.43
2022-11-17T10:00:29.116Z,4.45
2022-11-17T10:03:00.321Z,4.47
2022-11-17T10:05:32.784Z,4.49
2022-11-17T10:08:08.323Z,4.52
2022-11-17T10:10:44.327Z,4.52
2022-11-17T10:13:23.812Z,4.52
2022-11-17T10:15:58.542Z,4.53
2022-11-17T10:18:37.566Z,4.55
2022-11-17T10:21:10.309Z,4.55
2022-11-17T10:23:46.846Z,4.54
2022-11-17T10:26:18.487Z,4.53
2022-11-17T10:28:49.543Z,4.54
2022-11-17T10:31:21.099Z,4.54
2022-11-17T10:33:52.980Z,4.55
2022-11-17T10:36:26.069Z,4.53
2022-11-17T10:38:58.809Z,4.53
2022-11-17T10:41:37.323Z,4.55
2022-11-17T10:44:16.662Z,4.55
2022-11-17T10:47:02.454Z,4.56
2022-11-17T10:49:36.475Z,4.56
2022-11-17T10:52:18.763Z,4.56
2022-11-17T10:54:49.865Z,4.56
2022-11-17T10:57:24.251Z,4.57
2022-11-17T10:59:58.002Z,4.57
2022-11-17T11:02:35.101Z,4.58
2022-11-17T11:05:14.932Z,4.59
2022-11-17T11:07:45.982Z,4.60
2022-11-17T11:10:21.274Z,4.63
2022-11-17T11:12:56.783Z,4.64
2022-11-17T11:15:32.569Z,4.67
2022-11-17T11:18:03.092Z,4.69
2022-11-17T11:20:40.685Z,4.70
2022-11-17T11:23:21.639Z,4.69
2022-11-17T11:25:57.708Z,4.71
2022-11-17T11:28:45.606Z,4.74
2022-11-17T11:31:28.106Z,4.78
2022-11-17T11:34:08.596Z,4.82
2022-11-17T11:36:44.475Z,4.83
2022-11-17T11:39:30.883Z,4.83
2022-11-17T11:42:23.721Z,4.83
2022-11-17T11:45:08.221Z,4.84
2022-11-17T11:48:02.680Z,4.84
2022-11-17T11:50:41.580Z,4.85
2022-11-17T11:53:19.679Z,4.86
2022-11-17T11:55:56.668Z,4.89
2022-11-17T11:58:27.184Z,4.92
2022-11-17T12:01:05.425Z,4.95
2022-11-17T12:03:44.936Z,4.98
2022-11-17T12:06:44.064Z,5.00
2022-11-17T12:09:48.468Z,5.03
2022-11-17T12:12:21.647Z,5.05
2022-11-17T12:15:13.582Z,5.06
2022-11-17T12:18:00.040Z,5.08
2022-11-17T12:21:04.272Z,5.10
2022-11-17T12:23:49.516Z,5.12
2022-11-17T12:26:29.462Z,5.14
2022-11-17T12:29:30.672Z,5.16
2022-11-17T12:32:03.133Z,5.19
2022-11-17T12:34:37.149Z,5.16
2022-11-17T12:37:26.138Z,5.17
2022-11-17T12:40:05.068Z,5.19
2022-11-17T12:42:36.833Z,5.21
2022-11-17T12:45:12.498Z,5.24
2022-11-17T12:47:59.134Z,5.28
2022-11-17T12:50:49.511Z,5.31
2022-11-17T12:53:38.010Z,5.30
2022-11-17T12:56:41.077Z,5.31
2022-11-17T12:59:46.239Z,5.31
2022-11-17T13:02:53.247Z,5.30
2022-11-17T13:05:25.736Z,5.32
2022-11-17T13:08:20.307Z,5.31
2022-11-17T13:10:53.164Z,5.29
2022-11-17T13:13:26.308Z,5.29
2022-11-17T13:15:59.704Z,5.28
2022-11-17T13:18:34.404Z,5.26
2022-11-17T13:21:05.791Z,5.21
2022-11-17T13:23:43.754Z,5.20
2022-11-17T13:26:20.761Z,5.21
2022-11-17T13:29:03.006Z,5.22
2022-11-17T13:31:34.311Z,5.24
2022-11-17T13:34:14.157Z,5.25
2022-11-17T13:36:56.878Z,5.28
2022-11-17T13:39:28.216Z,5.30
2022-11-17T13:41:59.057Z,5.33
2022-11-17T13:44:30.185Z,5.35
2022-11-17T13:47:21.008Z,5.38
2022-11-17T13:49:52.045Z,5.39
2022-11-17T13:52:40.442Z,5.40
2022-11-17T13:55:19.825Z,5.41
2022-11-17T13:57:59.144Z,5.41
2022-11-17T14:00:30.302Z,5.41
2022-11-17T14:03:03.279Z,5.43
2022-11-17T14:05:35.099Z,5.42
2022-11-17T14:08:27.060Z,5.41
2022-11-17T14:11:14.667Z,5.40
2022-11-17T14:13:47.736Z,5.40
2022-11-17T14:16:26.505Z,5.40
2022-11-17T14:19:06.136Z,5.39
2022-11-17T14:21:36.616Z,5.37
2022-11-17T14:24:13.912Z,5.37
2022-11-17T14:26:45.554Z,5.37
2022-11-17T14:29:16.442Z,5.36
2022-11-17T14:31:47.299Z,5.32
2022-11-17T14:34:18.063Z,5.30
2022-11-17T14:36:51.080Z,5.29
2022-11-17T14:39:22.137Z,5.26
2022-11-17T14:41:53.721Z,5.25
2022-11-17T14:44:24.063Z,5.24
2022-11-17T14:46:54.424Z,5.24
2022-11-17T14:49:25.146Z,5.23
2022-11-17T14:51:59.225Z,5.20
2022-11-17T14:54:30.117Z,5.19
2022-11-17T14:57:00.497Z,5.21
2022-11-17T14:59:31.492Z,5.22
2022-11-17T15:02:02.455Z,5.24
2022-11-17T15:04:50.101Z,5.25
2022-11-17T15:07:21.918Z,5.23
2022-11-17T15:09:52.892Z,5.22
2022-11-17T15:12:23.441Z,5.20
2022-11-17T15:14:57.297Z,5.17
2022-11-17T15:17:28.759Z,5.17
2022-11-17T15:19:59.504Z,5.20
2022-11-17T15:22:29.889Z,5.23
2022-11-17T15:25:00.538Z,5.23
2022-11-17T15:27:31.203Z,5.22
2022-11-17T15:30:02.043Z,5.22
2022-11-17T15:32:33.143Z,5.23
2022-11-17T15:35:04.295Z,5.23
2022-11-17T15:37:35.062Z,5.23
2022-11-17T15:40:06.404Z,5.23
2022-11-17T15:42:37.300Z,5.22
2022-11-17T15:45:09.396Z,5.20
2022-11-17T15:47:40.271Z,5.18
2022-11-17T15:50:11.951Z,5.18
2022-11-17T15:53:02.912Z,5.17
2022-11-17T15:55:34.393Z,5.15
2022-11-17T15:58:05.201Z,5.14
2022-11-17T16:00:40.096Z,5.15
2022-11-17T16:03:10.962Z,5.15
2022-11-17T16:05:41.383Z,5.15
2022-11-17T16:08:12.123Z,5.14
2022-11-17T16:10:43.132Z,5.14
2022-11-17T16:13:13.907Z,5.14
2022-11-17T16:15:44.323Z,5.14
2022-11-17T16:18:14.716Z,5.14
2022-11-17T16:20:45.406Z,5.13
2022-11-17T16:23:16.458Z,5.12
2022-11-17T16:25:49.253Z,5.13
2022-11-17T16:28:20.418Z,5.13
2022-11-17T16:30:50.787Z,5.14
2022-11-17T16:33:21.203Z,5.14
2022-11-17T16:35:51.604Z,5.14
2022-11-17T16:38:22.053Z,5.16
2022-11-17T16:40:52.630Z,5.18
2022-11-17T16:43:23.092Z,5.17
2022-11-17T16:45:53.764Z,5.17
2022-11-17T16:48:25.426Z,5.16
2022-11-17T16:50:55.907Z,5.15
2022-11-17T16:53:26.689Z,5.14
2022-11-17T16:56:03.582Z,5.14
2022-11-17T16:58:34.192Z,5.16
2022-11-17T17:01:13.443Z,5.17
2022-11-17T17:03:44.667Z,5.18
2022-11-17T17:06:16.752Z,5.19
2022-11-17T17:08:47.198Z,5.21
2022-11-17T17:11:18.308Z,5.21
2022-11-17T17:13:48.722Z,5.21
2022-11-17T17:16:21.262Z,5.20
2022-11-17T17:18:59.070Z,5.22
2022-11-17T17:21:31.184Z,5.22
2022-11-17T17:24:01.895Z,5.23
2022-11-17T17:26:33.603Z,5.23
2022-11-17T17:29:05.714Z,5.25
2022-11-17T17:31:38.142Z,5.23
2022-11-17T17:34:09.954Z,5.21
2022-11-17T17:36:40.376Z,5.22
2022-11-17T17:39:11.217Z,5.24
2022-11-17T17:41:44.298Z,5.26
2022-11-17T17:44:18.677Z,5.26
2022-11-17T17:46:49.897Z,5.26
2022-11-17T17:49:20.352Z,5.24
2022-11-17T17:51:50.777Z,5.27
2022-11-17T17:54:24.039Z,5.26
2022-11-17T17:56:57.324Z,5.26
2022-11-17T17:59:27.672Z,5.27
2022-11-17T18:01:58.104Z,5.27
2022-11-17T18:04:29.601Z,5.27
2022-11-17T18:07:01.652Z,5.28
2022-11-17T18:09:32.628Z,5.26
2022-11-17T18:12:03.032Z,5.25
2022-11-17T18:14:33.609Z,5.24
2022-11-17T18:17:04.545Z,5.23
2022-11-17T18:19:35.024Z,5.22
2022-11-17T18:22:05.536Z,5.22
2022-11-17T18:24:36.207Z,5.22
2022-11-17T18:27:07.571Z,5.23
2022-11-17T18:29:37.931Z,5.25
2022-11-17T18:32:08.847Z,5.26
2022-11-17T18:34:41.863Z,5.28
2022-11-17T18:37:13.076Z,5.26
2022-11-17T18:39:43.961Z,5.28
2022-11-17T18:42:14.707Z,5.30
2022-11-17T18:44:45.088Z,5.31
2022-11-17T18:47:15.631Z,5.31
2022-11-17T18:49:46.566Z,5.31
2022-11-17T18:52:17.103Z,5.29
2022-11-17T18:54:47.618Z,5.31
2022-11-17T18:57:19.151Z,5.32
2022-11-17T18:59:49.755Z,5.33
2022-11-17T19:02:20.511Z,5.33
2022-11-17T19:04:51.208Z,5.31
2022-11-17T19:07:21.679Z,5.29
2022-11-17T19:09:52.086Z,5.28
2022-11-17T19:12:22.476Z,5.29
2022-11-17T19:14:54.612Z,5.30
2022-11-17T19:17:25.527Z,5.29
2022-11-17T19:19:56.565Z,5.27
2022-11-17T19:22:27.634Z,5.26
2022-11-17T19:24:58.075Z,5.25
2022-11-17T19:27:28.579Z,5.27
2022-11-17T19:29:59.594Z,5.28
2022-11-17T19:32:30.289Z,5.26
2022-11-17T19:35:11.784Z,5.26
2022-11-17T19:37:45.545Z,5.27
2022-11-17T19:40:17.154Z,5.29
2022-11-17T19:42:50.027Z,5.31
2022-11-17T19:45:20.999Z,5.35
2022-11-17T19:47:51.349Z,5.37
2022-11-17T19:50:22.167Z,5.39
2022-11-17T19:52:53.111Z,5.40
2022-11-17T19:55:24.127Z,5.39
2022-11-17T19:57:55.202Z,5.36
2022-11-17T20:00:25.627Z,5.34
2022-11-17T20:02:56.346Z,5.35
2022-11-17T20:05:27.398Z,5.36
2022-11-17T20:07:58.296Z,5.37
2022-11-17T20:10:28.716Z,5.36
2022-11-17T20:13:00.335Z,5.38
2022-11-17T20:15:35.005Z,5.41
2022-11-17T20:18:05.791Z,5.40
2022-11-17T20:20:37.450Z,5.38
2022-11-17T20:23:08.562Z,5.38
2022-11-17T20:25:41.371Z,5.37
2022-11-17T20:28:12.082Z,5.35
2022-11-17T20:30:43.251Z,5.33
2022-11-17T20:33:13.901Z,5.31
2022-11-17T20:35:44.986Z,5.30
2022-11-17T20:38:16.014Z,5.29
2022-11-17T20:40:46.609Z,5.30
2022-11-17T20:43:17.036Z,5.29
2022-11-17T20:45:51.060Z,5.28
2022-11-17T20:48:21.973Z,5.26
2022-11-17T20:51:00.003Z,5.24
2022-11-17T20:53:29.426Z,5.23
2022-11-17T20:56:00.612Z,5.23
2022-11-17T20:58:32.381Z,5.23
2022-11-17T21:01:09.825Z,5.20
2022-11-17T21:03:40.892Z,5.20
2022-11-17T21:06:12.065Z,5.19
2022-11-17T21:08:44.801Z,5.19
2022-11-17T21:11:36.744Z,5.17
2022-11-17T21:14:08.612Z,5.19
2022-11-17T21:16:40.893Z,5.18
2022-11-17T21:19:11.364Z,5.20
2022-11-17T21:21:41.800Z,5.22
2022-11-17T21:24:12.753Z,5.24
2022-11-17T21:26:43.195Z,5.24
2022-11-17T21:29:14.249Z,5.25
2022-11-17T21:31:44.872Z,5.21
2022-11-17T21:34:17.714Z,5.20
2022-11-17T21:36:48.140Z,5.17
2022-11-17T21:39:19.873Z,5.19
2022-11-17T21:41:50.667Z,5.18
2022-11-17T21:44:21.526Z,5.18
2022-11-17T21:46:52.148Z,5.16
2022-11-17T21:49:22.898Z,5.15
2022-11-17T21:51:53.248Z,5.14
2022-11-17T21:54:24.068Z,5.14
2022-11-17T21:56:54.504Z,5.12
2022-11-17T21:59:25.716Z,5.12
2022-11-17T22:01:56.838Z,5.11
2022-11-17T22:04:27.901Z,5.12
2022-11-17T22:06:58.341Z,5.13
2022-11-17T22:09:29.204Z,5.14
2022-11-17T22:12:00.070Z,5.15
2022-11-17T22:14:30.560Z,5.15
2022-11-17T22:17:01.664Z,5.16
2022-11-17T22:19:33.762Z,5.14
2022-11-17T22:22:04.213Z,5.11
2022-11-17T22:24:35.020Z,5.10
2022-11-17T22:27:05.936Z,5.08
2022-11-17T22:29:37.008Z,5.09
2022-11-17T22:32:07.749Z,5.10
2022-11-17T22:34:38.695Z,5.13
2022-11-17T22:37:09.122Z,5.14
2022-11-17T22:39:39.929Z,5.15
2022-11-17T22:42:10.839Z,5.14
2022-11-17T22:44:41.654Z,5.15
2022-11-17T22:47:12.040Z,5.18
2022-11-17T22:49:42.852Z,5.17
2022-11-17T22:52:15.039Z,5.15
2022-11-17T22:54:45.785Z,5.14
2022-11-17T22:57:16.589Z,5.14
2022-11-17T22:59:47.541Z,5.15
2022-11-17T23:02:18.152Z,5.19
2022-11-17T23:04:48.831Z,5.19
2022-11-17T23:07:19.338Z,5.18
2022-11-17T23:09:50.738Z,5.18
2022-11-17T23:12:21.293Z,5.17
2022-11-17T23:14:52.361Z,5.14
2022-11-17T23:17:23.113Z,5.10
2022-11-17T23:19:53.911Z,5.07
2022-11-17T23:22:24.279Z,5.05
2022-11-17T23:24:55.322Z,5.03
2022-11-17T23:27:25.939Z,5.00
2022-11-17T23:29:56.923Z,4.98
2022-11-17T23:32:27.692Z,4.96
2022-11-17T23:34:58.057Z,4.93
2022-11-17T23:37:28.965Z,4.93
2022-11-17T23:39:59.718Z,4.94
2022-11-17T23:42:32.655Z,4.94
2022-11-17T23:45:03.956Z,4.96
2022-11-17T23:47:34.572Z,4.94
2022-11-17T23:50:05.209Z,4.94
2022-11-17T23:52:35.659Z,4.91
2022-11-17T23:55:07.075Z,4.91
2022-11-17T23:57:37.792Z,4.89
